首页
METAR-TAF:

METAR-TAF

机场 :

Jamestown, 北达科他州, 美国

纬度: 46-55-47N, 经度: 098-40-42W, 海拔: 457米

当前天气观测

该预报发布于1小时和18分钟前的08:56 UTC
风速11节,风向西北
温度 11°C
湿度 87%
气压 1019 hPa
能見度: 16.1公里
少量云层高于4400英尺
阴天层高于6000英尺

METAR: KJMS 190856Z AUTO 31011KT 10SM FEW044 OVC060 11/09 A3010 RMK AO2 SLP199 T01060089 51027

时间: 05:14 (10:14 UTC)

预报

该预报发布于4小时和46分钟前的05:28 UTC
预报有效从19日的 06点(UTC)到 20日的 06点(UTC)
风速10节,风向西转西北
能見度: 10公里
阴天层高于3500英尺
从 19日的 1300点(UTC)
风速8节,风向西北
能見度: 10公里
散云层高于1800英尺
从 19日的 1800点(UTC)
风速5节,风向多变
能見度: 10公里
散云层高于15000英尺
从 19日的 2200点(UTC)
风速6节,风向东南
能見度: 10公里
多云层高于12000英尺
从 20日的 0100点(UTC)
风速7节,风向南转南东
能見度: 10公里
多云层高于10000英尺

TAF: KJMS 190528Z 1906/2006 30010KT P6SM OVC035 FM191300 32008KT P6SM SCT018 FM191800 VRB05KT P6SM SCT150 FM192200 14006KT P6SM BKN120 FM200100 15007KT P6SM BKN100

超过4000个机场的气象观测和天气预报(METAR&TAF报告)。

可查询的气象台以黄色和红色小点在地图上表示。

将鼠标移到小点上方,可查看气象台名称。

然后点击查看天气观测和预报。

如需切换地图:点击带黑十字的绿色按钮放大地图;点击带横线的绿色按钮缩小地图;或者点击绿色箭头查看邻近地区的地图。


METAR-TAF: